sensor_id;sensor_type;location;lat;lon;timestamp;P1;durP1;ratioP1;P2;durP2;ratioP2
51080;SDS011;37130;55.670;37.596;2023-06-26T00:01:45;0.00;;;0.00;;
51080;SDS011;37130;55.670;37.596;2023-06-26T00:04:12;0.00;;;0.00;;
51080;SDS011;37130;55.670;37.596;2023-06-26T00:06:41;0.00;;;0.00;;
51080;SDS011;37130;55.670;37.596;2023-06-26T00:09:09;0.00;;;0.00;;
51080;SDS011;37130;55.670;37.596;2023-06-26T00:11:36;0.00;;;0.00;;
51080;SDS011;37130;55.670;37.596;2023-06-26T00:14:04;0.00;;;0.00;;
51080;SDS011;37130;55.670;37.596;2023-06-26T00:16:32;0.00;;;0.00;;
51080;SDS011;37130;55.670;37.596;2023-06-26T00:19:00;0.00;;;0.00;;
51080;SDS011;37130;55.670;37.596;2023-06-26T00:21:27;0.00;;;0.00;;
51080;SDS011;37130;55.670;37.596;2023-06-26T00:23:54;0.00;;;0.00;;
51080;SDS011;37130;55.670;37.596;2023-06-26T00:26:22;0.00;;;0.00;;
51080;SDS011;37130;55.670;37.596;2023-06-26T00:28:51;0.00;;;0.00;;
51080;SDS011;37130;55.670;37.596;2023-06-26T00:31:19;0.00;;;0.00;;
51080;SDS011;37130;55.670;37.596;2023-06-26T00:33:47;0.00;;;0.00;;
51080;SDS011;37130;55.670;37.596;2023-06-26T00:36:15;0.00;;;0.00;;
51080;SDS011;37130;55.670;37.596;2023-06-26T00:38:43;0.00;;;0.00;;
51080;SDS011;37130;55.670;37.596;2023-06-26T00:41:10;0.00;;;0.00;;
51080;SDS011;37130;55.670;37.596;2023-06-26T00:43:40;0.00;;;0.00;;
51080;SDS011;37130;55.670;37.596;2023-06-26T00:46:10;0.00;;;0.00;;
51080;SDS011;37130;55.670;37.596;2023-06-26T00:48:41;0.00;;;0.00;;
51080;SDS011;37130;55.670;37.596;2023-06-26T00:51:12;0.00;;;0.00;;
51080;SDS011;37130;55.670;37.596;2023-06-26T00:53:39;0.00;;;0.00;;
51080;SDS011;37130;55.670;37.596;2023-06-26T00:56:08;0.00;;;0.00;;
51080;SDS011;37130;55.670;37.596;2023-06-26T00:58:36;0.00;;;0.00;;
51080;SDS011;37130;55.670;37.596;2023-06-26T01:01:03;0.00;;;0.00;;
51080;SDS011;37130;55.670;37.596;2023-06-26T01:03:38;0.00;;;0.00;;
51080;SDS011;37130;55.670;37.596;2023-06-26T01:06:07;0.00;;;0.00;;
51080;SDS011;37130;55.670;37.596;2023-06-26T01:08:38;0.00;;;0.00;;
51080;SDS011;37130;55.670;37.596;2023-06-26T01:11:08;0.00;;;0.00;;
51080;SDS011;37130;55.670;37.596;2023-06-26T01:13:35;0.00;;;0.00;;
51080;SDS011;37130;55.670;37.596;2023-06-26T01:16:04;0.00;;;0.00;;
51080;SDS011;37130;55.670;37.596;2023-06-26T01:18:32;0.00;;;0.00;;
51080;SDS011;37130;55.670;37.596;2023-06-26T01:21:00;0.00;;;0.00;;
51080;SDS011;37130;55.670;37.596;2023-06-26T01:23:30;0.00;;;0.00;;
51080;SDS011;37130;55.670;37.596;2023-06-26T01:26:19;0.00;;;0.00;;
51080;SDS011;37130;55.670;37.596;2023-06-26T01:28:49;0.00;;;0.00;;
51080;SDS011;37130;55.670;37.596;2023-06-26T01:31:19;0.00;;;0.00;;
51080;SDS011;37130;55.670;37.596;2023-06-26T01:33:46;0.00;;;0.00;;
51080;SDS011;37130;55.670;37.596;2023-06-26T01:36:14;0.00;;;0.00;;
51080;SDS011;37130;55.670;37.596;2023-06-26T01:38:42;0.00;;;0.00;;
51080;SDS011;37130;55.670;37.596;2023-06-26T01:41:09;0.00;;;0.00;;
51080;SDS011;37130;55.670;37.596;2023-06-26T01:47:00;0.00;;;0.00;;
51080;SDS011;37130;55.670;37.596;2023-06-26T01:52:42;0.00;;;0.00;;
51080;SDS011;37130;55.670;37.596;2023-06-26T01:58:03;0.00;;;0.00;;
51080;SDS011;37130;55.670;37.596;2023-06-26T02:00:31;0.00;;;0.00;;
51080;SDS011;37130;55.670;37.596;2023-06-26T02:03:00;0.00;;;0.00;;
51080;SDS011;37130;55.670;37.596;2023-06-26T02:05:29;0.00;;;0.00;;
51080;SDS011;37130;55.670;37.596;2023-06-26T02:07:59;0.00;;;0.00;;
51080;SDS011;37130;55.670;37.596;2023-06-26T02:10:30;0.00;;;0.00;;
51080;SDS011;37130;55.670;37.596;2023-06-26T02:12:58;0.00;;;0.00;;
51080;SDS011;37130;55.670;37.596;2023-06-26T02:15:26;0.00;;;0.00;;
51080;SDS011;37130;55.670;37.596;2023-06-26T02:17:53;0.00;;;0.00;;
51080;SDS011;37130;55.670;37.596;2023-06-26T02:20:21;0.00;;;0.00;;
51080;SDS011;37130;55.670;37.596;2023-06-26T02:22:48;0.00;;;0.00;;
51080;SDS011;37130;55.670;37.596;2023-06-26T02:25:17;0.00;;;0.00;;
51080;SDS011;37130;55.670;37.596;2023-06-26T02:27:44;0.00;;;0.00;;
51080;SDS011;37130;55.670;37.596;2023-06-26T02:30:12;0.00;;;0.00;;
51080;SDS011;37130;55.670;37.596;2023-06-26T02:32:40;0.00;;;0.00;;
51080;SDS011;37130;55.670;37.596;2023-06-26T02:35:07;0.00;;;0.00;;
51080;SDS011;37130;55.670;37.596;2023-06-26T02:37:35;0.00;;;0.00;;
51080;SDS011;37130;55.670;37.596;2023-06-26T02:40:02;0.00;;;0.00;;
51080;SDS011;37130;55.670;37.596;2023-06-26T02:42:34;0.00;;;0.00;;
51080;SDS011;37130;55.670;37.596;2023-06-26T02:45:02;0.00;;;0.00;;
51080;SDS011;37130;55.670;37.596;2023-06-26T02:47:31;0.00;;;0.00;;
51080;SDS011;37130;55.670;37.596;2023-06-26T02:49:59;0.00;;;0.00;;
51080;SDS011;37130;55.670;37.596;2023-06-26T02:52:38;0.00;;;0.00;;
51080;SDS011;37130;55.670;37.596;2023-06-26T02:55:05;0.00;;;0.00;;
51080;SDS011;37130;55.670;37.596;2023-06-26T02:57:33;0.00;;;0.00;;
51080;SDS011;37130;55.670;37.596;2023-06-26T03:00:00;0.00;;;0.00;;
51080;SDS011;37130;55.670;37.596;2023-06-26T03:02:30;0.00;;;0.00;;
51080;SDS011;37130;55.670;37.596;2023-06-26T03:04:57;0.00;;;0.00;;
51080;SDS011;37130;55.670;37.596;2023-06-26T03:07:25;0.00;;;0.00;;
51080;SDS011;37130;55.670;37.596;2023-06-26T03:09:53;0.00;;;0.00;;
51080;SDS011;37130;55.670;37.596;2023-06-26T03:12:21;0.00;;;0.00;;
51080;SDS011;37130;55.670;37.596;2023-06-26T03:14:49;0.00;;;0.00;;
51080;SDS011;37130;55.670;37.596;2023-06-26T03:17:16;0.00;;;0.00;;
51080;SDS011;37130;55.670;37.596;2023-06-26T03:19:46;0.00;;;0.00;;
51080;SDS011;37130;55.670;37.596;2023-06-26T03:22:13;0.00;;;0.00;;
51080;SDS011;37130;55.670;37.596;2023-06-26T03:24:41;0.00;;;0.00;;
51080;SDS011;37130;55.670;37.596;2023-06-26T03:27:10;0.00;;;0.00;;
51080;SDS011;37130;55.670;37.596;2023-06-26T03:29:38;0.00;;;0.00;;
51080;SDS011;37130;55.670;37.596;2023-06-26T03:32:06;0.00;;;0.00;;
51080;SDS011;37130;55.670;37.596;2023-06-26T03:34:35;0.00;;;0.00;;
51080;SDS011;37130;55.670;37.596;2023-06-26T03:37:05;0.00;;;0.00;;
51080;SDS011;37130;55.670;37.596;2023-06-26T03:39:33;0.00;;;0.00;;
51080;SDS011;37130;55.670;37.596;2023-06-26T03:42:00;0.10;;;0.10;;
51080;SDS011;37130;55.670;37.596;2023-06-26T03:44:28;0.10;;;0.10;;
51080;SDS011;37130;55.670;37.596;2023-06-26T03:46:55;0.10;;;0.10;;
51080;SDS011;37130;55.670;37.596;2023-06-26T03:49:23;0.10;;;0.10;;
51080;SDS011;37130;55.670;37.596;2023-06-26T03:51:51;0.10;;;0.10;;
51080;SDS011;37130;55.670;37.596;2023-06-26T03:54:19;0.20;;;0.20;;
51080;SDS011;37130;55.670;37.596;2023-06-26T03:56:47;0.13;;;0.13;;
51080;SDS011;37130;55.670;37.596;2023-06-26T03:59:15;0.20;;;0.20;;
51080;SDS011;37130;55.670;37.596;2023-06-26T04:01:42;0.20;;;0.20;;
51080;SDS011;37130;55.670;37.596;2023-06-26T04:04:10;0.20;;;0.20;;
51080;SDS011;37130;55.670;37.596;2023-06-26T04:06:37;0.30;;;0.30;;
51080;SDS011;37130;55.670;37.596;2023-06-26T04:09:05;0.22;;;0.22;;
51080;SDS011;37130;55.670;37.596;2023-06-26T04:11:32;0.20;;;0.20;;
51080;SDS011;37130;55.670;37.596;2023-06-26T04:13:59;0.20;;;0.20;;
51080;SDS011;37130;55.670;37.596;2023-06-26T04:16:27;0.30;;;0.30;;
51080;SDS011;37130;55.670;37.596;2023-06-26T04:18:54;0.30;;;0.30;;
51080;SDS011;37130;55.670;37.596;2023-06-26T04:21:23;0.22;;;0.22;;
51080;SDS011;37130;55.670;37.596;2023-06-26T04:23:51;0.30;;;0.30;;
51080;SDS011;37130;55.670;37.596;2023-06-26T04:26:19;0.30;;;0.30;;
51080;SDS011;37130;55.670;37.596;2023-06-26T04:28:46;0.30;;;0.30;;
51080;SDS011;37130;55.670;37.596;2023-06-26T04:31:14;0.30;;;0.30;;
51080;SDS011;37130;55.670;37.596;2023-06-26T04:33:41;0.30;;;0.30;;
51080;SDS011;37130;55.670;37.596;2023-06-26T04:36:09;0.30;;;0.30;;
51080;SDS011;37130;55.670;37.596;2023-06-26T04:38:38;0.30;;;0.30;;
51080;SDS011;37130;55.670;37.596;2023-06-26T04:41:06;0.40;;;0.40;;
51080;SDS011;37130;55.670;37.596;2023-06-26T04:43:33;0.30;;;0.30;;
51080;SDS011;37130;55.670;37.596;2023-06-26T04:46:04;0.30;;;0.30;;
51080;SDS011;37130;55.670;37.596;2023-06-26T04:48:32;0.30;;;0.30;;
51080;SDS011;37130;55.670;37.596;2023-06-26T04:51:00;0.38;;;0.38;;
51080;SDS011;37130;55.670;37.596;2023-06-26T04:53:28;0.30;;;0.30;;
51080;SDS011;37130;55.670;37.596;2023-06-26T04:55:55;0.40;;;0.40;;
51080;SDS011;37130;55.670;37.596;2023-06-26T04:58:22;0.40;;;0.40;;
51080;SDS011;37130;55.670;37.596;2023-06-26T05:00:50;0.38;;;0.38;;
51080;SDS011;37130;55.670;37.596;2023-06-26T05:03:17;0.50;;;0.50;;
51080;SDS011;37130;55.670;37.596;2023-06-26T05:05:45;0.50;;;0.50;;
51080;SDS011;37130;55.670;37.596;2023-06-26T05:08:16;0.40;;;0.40;;
51080;SDS011;37130;55.670;37.596;2023-06-26T05:10:45;0.40;;;0.40;;
51080;SDS011;37130;55.670;37.596;2023-06-26T05:13:13;0.30;;;0.30;;
51080;SDS011;37130;55.670;37.596;2023-06-26T05:15:46;0.32;;;0.32;;
51080;SDS011;37130;55.670;37.596;2023-06-26T05:18:14;0.40;;;0.40;;
51080;SDS011;37130;55.670;37.596;2023-06-26T05:20:41;0.30;;;0.30;;
51080;SDS011;37130;55.670;37.596;2023-06-26T05:23:10;0.30;;;0.30;;
51080;SDS011;37130;55.670;37.596;2023-06-26T05:25:39;0.30;;;0.30;;
51080;SDS011;37130;55.670;37.596;2023-06-26T05:28:07;0.38;;;0.38;;
51080;SDS011;37130;55.670;37.596;2023-06-26T05:30:37;0.40;;;0.40;;
51080;SDS011;37130;55.670;37.596;2023-06-26T05:33:05;0.30;;;0.30;;
51080;SDS011;37130;55.670;37.596;2023-06-26T05:35:34;0.40;;;0.40;;
51080;SDS011;37130;55.670;37.596;2023-06-26T05:38:03;0.40;;;0.40;;
51080;SDS011;37130;55.670;37.596;2023-06-26T05:40:31;0.40;;;0.40;;
51080;SDS011;37130;55.670;37.596;2023-06-26T05:43:01;0.40;;;0.40;;
51080;SDS011;37130;55.670;37.596;2023-06-26T05:45:29;0.40;;;0.40;;
51080;SDS011;37130;55.670;37.596;2023-06-26T05:47:57;0.43;;;0.43;;
51080;SDS011;37130;55.670;37.596;2023-06-26T05:50:25;0.40;;;0.40;;
51080;SDS011;37130;55.670;37.596;2023-06-26T05:52:53;0.40;;;0.40;;
51080;SDS011;37130;55.670;37.596;2023-06-26T05:55:21;0.40;;;0.40;;
51080;SDS011;37130;55.670;37.596;2023-06-26T05:57:49;0.40;;;0.40;;
51080;SDS011;37130;55.670;37.596;2023-06-26T06:00:17;0.43;;;0.43;;
51080;SDS011;37130;55.670;37.596;2023-06-26T06:02:45;0.40;;;0.40;;
51080;SDS011;37130;55.670;37.596;2023-06-26T06:05:12;0.40;;;0.40;;
51080;SDS011;37130;55.670;37.596;2023-06-26T06:07:40;0.40;;;0.40;;
51080;SDS011;37130;55.670;37.596;2023-06-26T06:10:07;0.47;;;0.47;;
51080;SDS011;37130;55.670;37.596;2023-06-26T06:12:35;0.50;;;0.50;;
51080;SDS011;37130;55.670;37.596;2023-06-26T06:15:02;0.50;;;0.50;;
51080;SDS011;37130;55.670;37.596;2023-06-26T06:17:30;0.50;;;0.50;;
51080;SDS011;37130;55.670;37.596;2023-06-26T06:19:58;0.55;;;0.55;;
51080;SDS011;37130;55.670;37.596;2023-06-26T06:22:25;0.50;;;0.50;;
51080;SDS011;37130;55.670;37.596;2023-06-26T06:24:53;0.50;;;0.50;;
51080;SDS011;37130;55.670;37.596;2023-06-26T06:27:20;0.40;;;0.40;;
51080;SDS011;37130;55.670;37.596;2023-06-26T06:29:47;0.50;;;0.50;;
51080;SDS011;37130;55.670;37.596;2023-06-26T06:32:15;0.50;;;0.50;;
51080;SDS011;37130;55.670;37.596;2023-06-26T06:34:42;0.60;;;0.60;;
51080;SDS011;37130;55.670;37.596;2023-06-26T06:37:10;0.60;;;0.60;;
51080;SDS011;37130;55.670;37.596;2023-06-26T06:39:37;0.50;;;0.50;;
51080;SDS011;37130;55.670;37.596;2023-06-26T06:42:05;0.40;;;0.40;;
51080;SDS011;37130;55.670;37.596;2023-06-26T06:44:33;0.40;;;0.40;;
51080;SDS011;37130;55.670;37.596;2023-06-26T06:47:00;0.40;;;0.40;;
51080;SDS011;37130;55.670;37.596;2023-06-26T06:49:28;0.38;;;0.38;;
51080;SDS011;37130;55.670;37.596;2023-06-26T06:51:55;0.30;;;0.30;;
51080;SDS011;37130;55.670;37.596;2023-06-26T06:54:25;0.30;;;0.30;;
51080;SDS011;37130;55.670;37.596;2023-06-26T06:56:54;0.30;;;0.30;;
51080;SDS011;37130;55.670;37.596;2023-06-26T06:59:21;0.40;;;0.40;;
51080;SDS011;37130;55.670;37.596;2023-06-26T07:01:49;0.40;;;0.40;;
51080;SDS011;37130;55.670;37.596;2023-06-26T07:04:16;0.40;;;0.40;;
51080;SDS011;37130;55.670;37.596;2023-06-26T07:06:44;0.40;;;0.40;;
51080;SDS011;37130;55.670;37.596;2023-06-26T07:09:11;0.50;;;0.50;;
51080;SDS011;37130;55.670;37.596;2023-06-26T07:11:39;0.50;;;0.50;;
51080;SDS011;37130;55.670;37.596;2023-06-26T07:14:06;0.60;;;0.60;;
51080;SDS011;37130;55.670;37.596;2023-06-26T07:16:33;0.50;;;0.50;;
51080;SDS011;37130;55.670;37.596;2023-06-26T07:19:01;0.50;;;0.50;;
51080;SDS011;37130;55.670;37.596;2023-06-26T07:21:28;0.40;;;0.40;;
51080;SDS011;37130;55.670;37.596;2023-06-26T07:23:56;0.40;;;0.40;;
51080;SDS011;37130;55.670;37.596;2023-06-26T07:26:23;0.40;;;0.40;;
51080;SDS011;37130;55.670;37.596;2023-06-26T07:29:09;0.40;;;0.40;;
51080;SDS011;37130;55.670;37.596;2023-06-26T07:31:37;0.40;;;0.40;;
51080;SDS011;37130;55.670;37.596;2023-06-26T07:34:04;0.38;;;0.38;;
51080;SDS011;37130;55.670;37.596;2023-06-26T07:36:31;0.40;;;0.40;;
51080;SDS011;37130;55.670;37.596;2023-06-26T07:38:59;0.38;;;0.38;;
51080;SDS011;37130;55.670;37.596;2023-06-26T07:41:26;0.35;;;0.35;;
51080;SDS011;37130;55.670;37.596;2023-06-26T07:43:56;0.40;;;0.40;;
51080;SDS011;37130;55.670;37.596;2023-06-26T07:46:25;0.40;;;0.40;;
51080;SDS011;37130;55.670;37.596;2023-06-26T07:48:53;0.50;;;0.50;;
51080;SDS011;37130;55.670;37.596;2023-06-26T07:51:20;0.50;;;0.50;;
51080;SDS011;37130;55.670;37.596;2023-06-26T07:53:48;0.50;;;0.50;;
51080;SDS011;37130;55.670;37.596;2023-06-26T07:56:16;0.50;;;0.50;;
51080;SDS011;37130;55.670;37.596;2023-06-26T07:58:43;0.40;;;0.40;;
51080;SDS011;37130;55.670;37.596;2023-06-26T08:01:11;0.30;;;0.30;;
51080;SDS011;37130;55.670;37.596;2023-06-26T08:03:38;0.20;;;0.20;;
51080;SDS011;37130;55.670;37.596;2023-06-26T08:06:07;0.20;;;0.20;;
51080;SDS011;37130;55.670;37.596;2023-06-26T08:08:38;0.10;;;0.10;;
51080;SDS011;37130;55.670;37.596;2023-06-26T08:11:05;0.03;;;0.03;;
51080;SDS011;37130;55.670;37.596;2023-06-26T08:13:33;0.10;;;0.10;;
51080;SDS011;37130;55.670;37.596;2023-06-26T08:16:00;0.00;;;0.00;;
51080;SDS011;37130;55.670;37.596;2023-06-26T08:18:28;0.00;;;0.00;;
51080;SDS011;37130;55.670;37.596;2023-06-26T08:20:55;0.00;;;0.00;;
51080;SDS011;37130;55.670;37.596;2023-06-26T08:23:23;0.00;;;0.00;;
51080;SDS011;37130;55.670;37.596;2023-06-26T08:25:52;0.00;;;0.00;;
51080;SDS011;37130;55.670;37.596;2023-06-26T08:28:20;0.00;;;0.00;;
51080;SDS011;37130;55.670;37.596;2023-06-26T08:30:47;0.00;;;0.00;;
51080;SDS011;37130;55.670;37.596;2023-06-26T08:33:15;0.00;;;0.00;;
51080;SDS011;37130;55.670;37.596;2023-06-26T08:35:43;0.00;;;0.00;;
51080;SDS011;37130;55.670;37.596;2023-06-26T08:38:10;0.00;;;0.00;;
51080;SDS011;37130;55.670;37.596;2023-06-26T08:40:38;0.00;;;0.00;;
51080;SDS011;37130;55.670;37.596;2023-06-26T08:43:06;0.00;;;0.00;;
51080;SDS011;37130;55.670;37.596;2023-06-26T08:45:33;0.00;;;0.00;;
51080;SDS011;37130;55.670;37.596;2023-06-26T08:48:01;0.00;;;0.00;;
51080;SDS011;37130;55.670;37.596;2023-06-26T08:50:31;0.00;;;0.00;;
51080;SDS011;37130;55.670;37.596;2023-06-26T08:53:04;0.00;;;0.00;;
51080;SDS011;37130;55.670;37.596;2023-06-26T08:55:41;0.00;;;0.00;;
51080;SDS011;37130;55.670;37.596;2023-06-26T08:58:09;0.00;;;0.00;;
51080;SDS011;37130;55.670;37.596;2023-06-26T09:00:38;0.00;;;0.00;;
51080;SDS011;37130;55.670;37.596;2023-06-26T09:03:07;0.00;;;0.00;;
51080;SDS011;37130;55.670;37.596;2023-06-26T09:05:36;0.00;;;0.00;;
51080;SDS011;37130;55.670;37.596;2023-06-26T09:08:04;0.00;;;0.00;;
51080;SDS011;37130;55.670;37.596;2023-06-26T09:10:32;0.00;;;0.00;;
51080;SDS011;37130;55.670;37.596;2023-06-26T09:13:00;0.00;;;0.00;;
51080;SDS011;37130;55.670;37.596;2023-06-26T09:15:37;0.00;;;0.00;;
51080;SDS011;37130;55.670;37.596;2023-06-26T09:18:14;0.00;;;0.00;;
51080;SDS011;37130;55.670;37.596;2023-06-26T09:20:45;0.00;;;0.00;;
51080;SDS011;37130;55.670;37.596;2023-06-26T09:23:13;0.00;;;0.00;;
51080;SDS011;37130;55.670;37.596;2023-06-26T09:25:40;0.00;;;0.00;;
51080;SDS011;37130;55.670;37.596;2023-06-26T09:28:08;0.00;;;0.00;;
51080;SDS011;37130;55.670;37.596;2023-06-26T09:30:39;0.00;;;0.00;;
51080;SDS011;37130;55.670;37.596;2023-06-26T09:33:13;0.00;;;0.00;;
51080;SDS011;37130;55.670;37.596;2023-06-26T09:35:43;0.00;;;0.00;;
51080;SDS011;37130;55.670;37.596;2023-06-26T09:38:11;0.00;;;0.00;;
51080;SDS011;37130;55.670;37.596;2023-06-26T09:40:40;0.00;;;0.00;;
51080;SDS011;37130;55.670;37.596;2023-06-26T09:43:09;0.00;;;0.00;;
51080;SDS011;37130;55.670;37.596;2023-06-26T09:45:39;0.00;;;0.00;;
51080;SDS011;37130;55.670;37.596;2023-06-26T09:48:08;0.00;;;0.00;;
51080;SDS011;37130;55.670;37.596;2023-06-26T09:50:35;0.00;;;0.00;;
51080;SDS011;37130;55.670;37.596;2023-06-26T09:53:12;0.00;;;0.00;;
51080;SDS011;37130;55.670;37.596;2023-06-26T09:55:45;0.00;;;0.00;;
51080;SDS011;37130;55.670;37.596;2023-06-26T09:58:13;0.00;;;0.00;;
51080;SDS011;37130;55.670;37.596;2023-06-26T10:00:43;0.00;;;0.00;;
51080;SDS011;37130;55.670;37.596;2023-06-26T10:03:11;0.00;;;0.00;;
51080;SDS011;37130;55.670;37.596;2023-06-26T10:05:40;0.00;;;0.00;;
51080;SDS011;37130;55.670;37.596;2023-06-26T10:08:07;0.00;;;0.00;;
51080;SDS011;37130;55.670;37.596;2023-06-26T10:10:36;0.00;;;0.00;;
51080;SDS011;37130;55.670;37.596;2023-06-26T10:13:09;0.00;;;0.00;;
51080;SDS011;37130;55.670;37.596;2023-06-26T10:15:41;0.00;;;0.00;;
51080;SDS011;37130;55.670;37.596;2023-06-26T10:18:12;0.00;;;0.00;;
51080;SDS011;37130;55.670;37.596;2023-06-26T10:20:44;0.00;;;0.00;;
51080;SDS011;37130;55.670;37.596;2023-06-26T10:23:17;0.00;;;0.00;;
51080;SDS011;37130;55.670;37.596;2023-06-26T10:25:48;0.00;;;0.00;;
51080;SDS011;37130;55.670;37.596;2023-06-26T10:28:18;0.00;;;0.00;;
51080;SDS011;37130;55.670;37.596;2023-06-26T10:30:48;0.00;;;0.00;;
51080;SDS011;37130;55.670;37.596;2023-06-26T10:33:18;0.00;;;0.00;;
51080;SDS011;37130;55.670;37.596;2023-06-26T10:35:47;0.00;;;0.00;;
51080;SDS011;37130;55.670;37.596;2023-06-26T10:38:14;0.00;;;0.00;;
51080;SDS011;37130;55.670;37.596;2023-06-26T10:43:11;0.00;;;0.00;;
51080;SDS011;37130;55.670;37.596;2023-06-26T10:45:43;0.00;;;0.00;;
51080;SDS011;37130;55.670;37.596;2023-06-26T10:48:19;0.00;;;0.00;;
51080;SDS011;37130;55.670;37.596;2023-06-26T10:50:48;0.00;;;0.00;;
51080;SDS011;37130;55.670;37.596;2023-06-26T10:55:56;0.00;;;0.00;;
51080;SDS011;37130;55.670;37.596;2023-06-26T11:03:38;0.00;;;0.00;;
51080;SDS011;37130;55.670;37.596;2023-06-26T11:14:19;0.00;;;0.00;;
51080;SDS011;37130;55.670;37.596;2023-06-26T11:16:48;0.00;;;0.00;;
51080;SDS011;37130;55.670;37.596;2023-06-26T11:19:19;0.00;;;0.00;;
51080;SDS011;37130;55.670;37.596;2023-06-26T11:21:47;0.00;;;0.00;;
51080;SDS011;37130;55.670;37.596;2023-06-26T11:24:14;0.00;;;0.00;;
51080;SDS011;37130;55.670;37.596;2023-06-26T11:26:43;0.00;;;0.00;;
51080;SDS011;37130;55.670;37.596;2023-06-26T11:29:11;0.00;;;0.00;;
51080;SDS011;37130;55.670;37.596;2023-06-26T11:31:40;0.00;;;0.00;;
51080;SDS011;37130;55.670;37.596;2023-06-26T11:34:08;0.00;;;0.00;;
51080;SDS011;37130;55.670;37.596;2023-06-26T11:36:39;0.00;;;0.00;;
51080;SDS011;37130;55.670;37.596;2023-06-26T11:39:12;0.00;;;0.00;;
51080;SDS011;37130;55.670;37.596;2023-06-26T11:41:40;0.00;;;0.00;;
51080;SDS011;37130;55.670;37.596;2023-06-26T11:44:09;0.00;;;0.00;;
51080;SDS011;37130;55.670;37.596;2023-06-26T11:46:37;0.00;;;0.00;;
51080;SDS011;37130;55.670;37.596;2023-06-26T11:49:07;0.00;;;0.00;;
51080;SDS011;37130;55.670;37.596;2023-06-26T11:51:35;0.00;;;0.00;;
51080;SDS011;37130;55.670;37.596;2023-06-26T11:54:03;0.00;;;0.00;;
51080;SDS011;37130;55.670;37.596;2023-06-26T11:56:31;0.00;;;0.00;;
51080;SDS011;37130;55.670;37.596;2023-06-26T11:59:03;0.00;;;0.00;;
51080;SDS011;37130;55.670;37.596;2023-06-26T12:04:09;0.00;;;0.00;;
51080;SDS011;37130;55.670;37.596;2023-06-26T12:06:40;0.00;;;0.00;;
51080;SDS011;37130;55.670;37.596;2023-06-26T12:09:10;0.00;;;0.00;;
51080;SDS011;37130;55.670;37.596;2023-06-26T12:11:39;0.00;;;0.00;;
51080;SDS011;37130;55.670;37.596;2023-06-26T12:14:10;0.00;;;0.00;;
51080;SDS011;37130;55.670;37.596;2023-06-26T12:16:39;0.00;;;0.00;;
51080;SDS011;37130;55.670;37.596;2023-06-26T12:19:07;0.00;;;0.00;;
51080;SDS011;37130;55.670;37.596;2023-06-26T12:24:09;0.00;;;0.00;;
51080;SDS011;37130;55.670;37.596;2023-06-26T12:26:37;0.00;;;0.00;;
51080;SDS011;37130;55.670;37.596;2023-06-26T12:29:11;0.00;;;0.00;;
51080;SDS011;37130;55.670;37.596;2023-06-26T12:31:42;0.00;;;0.00;;
51080;SDS011;37130;55.670;37.596;2023-06-26T12:34:11;0.00;;;0.00;;
51080;SDS011;37130;55.670;37.596;2023-06-26T12:36:42;0.00;;;0.00;;
51080;SDS011;37130;55.670;37.596;2023-06-26T12:39:17;0.00;;;0.00;;
51080;SDS011;37130;55.670;37.596;2023-06-26T12:41:49;0.00;;;0.00;;
51080;SDS011;37130;55.670;37.596;2023-06-26T12:44:20;0.00;;;0.00;;
51080;SDS011;37130;55.670;37.596;2023-06-26T12:49:34;0.00;;;0.00;;
51080;SDS011;37130;55.670;37.596;2023-06-26T12:52:03;0.00;;;0.00;;
51080;SDS011;37130;55.670;37.596;2023-06-26T12:54:32;0.00;;;0.00;;
51080;SDS011;37130;55.670;37.596;2023-06-26T12:57:01;0.00;;;0.00;;
51080;SDS011;37130;55.670;37.596;2023-06-26T12:59:31;0.00;;;0.00;;
51080;SDS011;37130;55.670;37.596;2023-06-26T13:01:59;0.00;;;0.00;;
51080;SDS011;37130;55.670;37.596;2023-06-26T13:04:28;0.00;;;0.00;;
51080;SDS011;37130;55.670;37.596;2023-06-26T13:06:55;0.00;;;0.00;;
51080;SDS011;37130;55.670;37.596;2023-06-26T13:09:23;0.00;;;0.00;;
51080;SDS011;37130;55.670;37.596;2023-06-26T13:11:52;0.00;;;0.00;;
51080;SDS011;37130;55.670;37.596;2023-06-26T13:14:20;0.00;;;0.00;;
51080;SDS011;37130;55.670;37.596;2023-06-26T13:16:47;0.00;;;0.00;;
51080;SDS011;37130;55.670;37.596;2023-06-26T13:19:15;0.00;;;0.00;;
51080;SDS011;37130;55.670;37.596;2023-06-26T13:21:48;0.00;;;0.00;;
51080;SDS011;37130;55.670;37.596;2023-06-26T13:24:15;0.00;;;0.00;;
51080;SDS011;37130;55.670;37.596;2023-06-26T13:26:43;0.00;;;0.00;;
51080;SDS011;37130;55.670;37.596;2023-06-26T13:29:10;0.00;;;0.00;;
51080;SDS011;37130;55.670;37.596;2023-06-26T13:31:37;0.00;;;0.00;;
51080;SDS011;37130;55.670;37.596;2023-06-26T13:34:05;0.00;;;0.00;;
51080;SDS011;37130;55.670;37.596;2023-06-26T13:36:33;0.00;;;0.00;;
51080;SDS011;37130;55.670;37.596;2023-06-26T13:39:01;0.00;;;0.00;;
51080;SDS011;37130;55.670;37.596;2023-06-26T13:41:30;0.00;;;0.00;;
51080;SDS011;37130;55.670;37.596;2023-06-26T13:43:57;0.00;;;0.00;;
51080;SDS011;37130;55.670;37.596;2023-06-26T13:46:32;0.00;;;0.00;;
51080;SDS011;37130;55.670;37.596;2023-06-26T13:49:00;0.00;;;0.00;;
51080;SDS011;37130;55.670;37.596;2023-06-26T13:51:27;0.00;;;0.00;;
51080;SDS011;37130;55.670;37.596;2023-06-26T13:53:54;0.00;;;0.00;;
51080;SDS011;37130;55.670;37.596;2023-06-26T13:56:27;0.00;;;0.00;;
51080;SDS011;37130;55.670;37.596;2023-06-26T13:58:57;0.00;;;0.00;;
51080;SDS011;37130;55.670;37.596;2023-06-26T14:01:25;0.00;;;0.00;;
51080;SDS011;37130;55.670;37.596;2023-06-26T14:03:53;0.00;;;0.00;;
51080;SDS011;37130;55.670;37.596;2023-06-26T14:06:20;0.00;;;0.00;;
51080;SDS011;37130;55.670;37.596;2023-06-26T14:08:49;0.00;;;0.00;;
51080;SDS011;37130;55.670;37.596;2023-06-26T14:11:17;0.00;;;0.00;;
51080;SDS011;37130;55.670;37.596;2023-06-26T14:13:45;0.00;;;0.00;;
51080;SDS011;37130;55.670;37.596;2023-06-26T14:16:12;0.00;;;0.00;;
51080;SDS011;37130;55.670;37.596;2023-06-26T14:18:40;0.00;;;0.00;;
51080;SDS011;37130;55.670;37.596;2023-06-26T14:21:07;0.00;;;0.00;;
51080;SDS011;37130;55.670;37.596;2023-06-26T14:23:36;0.00;;;0.00;;
51080;SDS011;37130;55.670;37.596;2023-06-26T14:26:04;0.00;;;0.00;;
51080;SDS011;37130;55.670;37.596;2023-06-26T14:28:31;0.00;;;0.00;;
51080;SDS011;37130;55.670;37.596;2023-06-26T14:30:59;0.00;;;0.00;;
51080;SDS011;37130;55.670;37.596;2023-06-26T14:33:26;0.00;;;0.00;;
51080;SDS011;37130;55.670;37.596;2023-06-26T14:35:57;0.00;;;0.00;;
51080;SDS011;37130;55.670;37.596;2023-06-26T14:38:25;0.00;;;0.00;;
51080;SDS011;37130;55.670;37.596;2023-06-26T14:40:53;0.00;;;0.00;;
51080;SDS011;37130;55.670;37.596;2023-06-26T14:43:21;0.00;;;0.00;;
51080;SDS011;37130;55.670;37.596;2023-06-26T14:45:49;0.00;;;0.00;;
51080;SDS011;37130;55.670;37.596;2023-06-26T14:48:18;0.00;;;0.00;;
51080;SDS011;37130;55.670;37.596;2023-06-26T14:50:49;0.00;;;0.00;;
51080;SDS011;37130;55.670;37.596;2023-06-26T14:53:16;0.00;;;0.00;;
51080;SDS011;37130;55.670;37.596;2023-06-26T14:55:44;0.00;;;0.00;;
51080;SDS011;37130;55.670;37.596;2023-06-26T14:58:12;0.00;;;0.00;;
51080;SDS011;37130;55.670;37.596;2023-06-26T15:00:39;0.00;;;0.00;;
51080;SDS011;37130;55.670;37.596;2023-06-26T15:03:07;0.00;;;0.00;;
51080;SDS011;37130;55.670;37.596;2023-06-26T15:05:34;0.00;;;0.00;;
51080;SDS011;37130;55.670;37.596;2023-06-26T15:08:02;0.00;;;0.00;;
51080;SDS011;37130;55.670;37.596;2023-06-26T15:10:29;0.00;;;0.00;;
51080;SDS011;37130;55.670;37.596;2023-06-26T15:12:59;0.00;;;0.00;;
51080;SDS011;37130;55.670;37.596;2023-06-26T15:15:27;0.00;;;0.00;;
51080;SDS011;37130;55.670;37.596;2023-06-26T15:17:55;0.00;;;0.00;;